createdAt,value
2022-08-04T00:01:34.136Z,1.65
2022-08-04T00:04:05.377Z,2.10
2022-08-04T00:06:46.302Z,1.67
2022-08-04T00:09:22.496Z,1.67
2022-08-04T00:11:50.792Z,1.90
2022-08-04T00:14:21.170Z,2.20
2022-08-04T00:16:50.311Z,1.92
2022-08-04T00:19:23.980Z,1.90
2022-08-04T00:21:56.159Z,1.77
2022-08-04T00:24:24.862Z,1.92
2022-08-04T00:26:54.665Z,1.60
2022-08-04T00:29:24.604Z,1.80
2022-08-04T00:31:56.404Z,1.60
2022-08-04T00:34:26.763Z,1.70
2022-08-04T00:36:56.182Z,1.85
2022-08-04T00:39:24.429Z,1.50
2022-08-04T00:42:25.811Z,1.77
2022-08-04T00:45:08.557Z,1.65
2022-08-04T00:47:45.614Z,1.48
2022-08-04T00:50:20.314Z,1.63
2022-08-04T00:53:09.405Z,1.92
2022-08-04T00:55:51.290Z,1.40
2022-08-04T00:58:43.655Z,2.10
2022-08-04T01:01:29.174Z,2.30
2022-08-04T01:04:04.630Z,2.58
2022-08-04T01:06:42.508Z,2.00
2022-08-04T01:09:45.274Z,1.90
2022-08-04T01:12:31.345Z,2.72
2022-08-04T01:15:06.782Z,2.20
2022-08-04T01:17:47.084Z,1.92
2022-08-04T01:20:21.612Z,2.00
2022-08-04T01:23:26.044Z,2.40
2022-08-04T01:26:43.255Z,2.10
2022-08-04T01:29:15.036Z,2.10
2022-08-04T01:31:57.173Z,2.10
2022-08-04T01:34:28.876Z,2.50
2022-08-04T01:37:09.570Z,2.08
2022-08-04T01:39:44.099Z,2.08
2022-08-04T01:42:12.933Z,1.90
2022-08-04T01:45:03.426Z,1.80
2022-08-04T01:47:32.137Z,2.00
2022-08-04T01:50:06.991Z,1.90
2022-08-04T01:52:36.316Z,2.58
2022-08-04T01:55:06.397Z,2.70
2022-08-04T01:57:38.552Z,3.13
2022-08-04T02:00:10.132Z,2.40
2022-08-04T02:02:39.505Z,2.10
2022-08-04T02:05:10.557Z,2.35
2022-08-04T02:08:08.223Z,2.33
2022-08-04T02:10:48.414Z,2.50
2022-08-04T02:13:24.845Z,2.40
2022-08-04T02:16:05.725Z,2.10
2022-08-04T02:18:40.315Z,2.47
2022-08-04T02:21:08.493Z,2.50
2022-08-04T02:23:38.835Z,2.53
2022-08-04T02:26:07.943Z,2.50
2022-08-04T02:28:48.681Z,2.00
2022-08-04T02:31:28.770Z,2.83
2022-08-04T02:34:07.145Z,2.30
2022-08-04T02:36:38.085Z,2.70
2022-08-04T02:39:07.363Z,2.58
2022-08-04T02:41:36.121Z,3.03
2022-08-04T02:44:10.077Z,2.75
2022-08-04T02:46:40.876Z,2.83
2022-08-04T02:49:11.082Z,2.80
2022-08-04T02:51:42.605Z,3.33
2022-08-04T02:54:10.693Z,2.22
2022-08-04T02:56:40.461Z,2.75
2022-08-04T02:59:10.384Z,2.50
2022-08-04T03:01:56.488Z,1.92
2022-08-04T03:04:44.274Z,1.75
2022-08-04T03:07:47.854Z,2.30
2022-08-04T03:10:48.364Z,2.28
2022-08-04T03:14:00.250Z,2.03
2022-08-04T03:17:02.087Z,2.50
2022-08-04T03:19:52.290Z,2.67
2022-08-04T03:23:12.025Z,1.92
2022-08-04T03:26:07.812Z,2.70
2022-08-04T03:29:12.542Z,1.70
2022-08-04T03:32:22.492Z,2.17
2022-08-04T03:35:04.984Z,2.72
2022-08-04T03:37:54.472Z,2.80
2022-08-04T03:40:47.686Z,2.10
2022-08-04T03:43:58.977Z,1.80
2022-08-04T03:46:51.740Z,2.50
2022-08-04T03:49:41.741Z,2.40
2022-08-04T03:52:47.299Z,2.28
2022-08-04T03:55:53.343Z,2.33
2022-08-04T03:59:02.970Z,2.83
2022-08-04T04:02:02.094Z,2.30
2022-08-04T04:04:49.015Z,2.28
2022-08-04T04:08:13.802Z,2.38
2022-08-04T04:11:16.994Z,2.05
2022-08-04T04:14:17.401Z,1.92
2022-08-04T04:16:57.724Z,2.05
2022-08-04T04:19:47.837Z,1.80
2022-08-04T04:22:30.085Z,2.22
2022-08-04T04:27:41.750Z,2.08
2022-08-04T04:30:15.378Z,2.92
2022-08-04T04:33:07.823Z,2.60
2022-08-04T04:35:42.502Z,2.53
2022-08-04T04:38:32.221Z,2.60
2022-08-04T04:41:07.197Z,2.13
2022-08-04T04:43:55.701Z,2.05
2022-08-04T04:46:33.686Z,1.90
2022-08-04T04:49:06.621Z,2.10
2022-08-04T04:51:43.234Z,2.22
2022-08-04T04:54:21.005Z,2.28
2022-08-04T04:56:54.774Z,1.77
2022-08-04T04:59:25.377Z,2.10
2022-08-04T05:02:12.745Z,1.80
2022-08-04T05:05:20.621Z,2.13
2022-08-04T05:08:43.439Z,1.98
2022-08-04T05:11:25.323Z,1.73
2022-08-04T05:14:36.044Z,1.92
2022-08-04T05:16:47.597Z,2.42
2022-08-04T05:19:26.931Z,1.92
2022-08-04T05:22:02.356Z,1.70
2022-08-04T05:24:36.181Z,1.90
2022-08-04T05:27:12.150Z,2.30
2022-08-04T05:29:49.687Z,2.30
2022-08-04T05:32:21.048Z,1.40
2022-08-04T05:34:56.778Z,1.75
2022-08-04T05:37:30.241Z,1.88
2022-08-04T05:40:04.159Z,1.70
2022-08-04T05:42:34.501Z,1.73
2022-08-04T05:45:03.386Z,1.80
2022-08-04T05:47:33.543Z,1.90
2022-08-04T05:50:03.036Z,1.50
2022-08-04T05:52:32.240Z,1.80
2022-08-04T05:55:02.652Z,2.00
2022-08-04T05:57:31.252Z,1.70
2022-08-04T06:00:10.476Z,1.58
2022-08-04T06:02:53.690Z,2.08
2022-08-04T06:08:10.953Z,1.67
2022-08-04T06:10:40.990Z,1.63
2022-08-04T06:13:49.078Z,1.67
2022-08-04T06:16:02.950Z,1.83
2022-08-04T06:19:59.087Z,1.60
2022-08-04T06:21:24.565Z,1.80
2022-08-04T06:24:02.391Z,1.77
2022-08-04T06:26:35.838Z,1.73
2022-08-04T06:32:26.714Z,1.30
2022-08-04T06:34:35.544Z,1.60
2022-08-04T06:37:04.851Z,1.70
2022-08-04T06:39:34.448Z,1.83
2022-08-04T06:42:21.659Z,1.45
2022-08-04T06:44:55.080Z,1.92
2022-08-04T06:47:24.696Z,1.33
2022-08-04T06:51:27.120Z,1.60
2022-08-04T06:52:42.178Z,1.40
2022-08-04T06:55:10.381Z,1.50
2022-08-04T06:57:41.555Z,1.40
2022-08-04T07:00:12.348Z,1.13
2022-08-04T07:02:45.125Z,1.10
2022-08-04T07:05:13.622Z,1.10
2022-08-04T07:07:57.213Z,1.33
2022-08-04T07:10:28.408Z,1.23
2022-08-04T07:12:58.377Z,1.35
2022-08-04T07:15:26.939Z,1.27
2022-08-04T07:17:59.805Z,1.20
2022-08-04T07:20:35.043Z,1.20
2022-08-04T07:23:04.715Z,1.10
2022-08-04T07:26:00.731Z,1.00
2022-08-04T07:28:25.011Z,1.00
2022-08-04T07:30:54.741Z,1.17
2022-08-04T07:33:23.467Z,1.00
2022-08-04T07:36:09.369Z,1.25
2022-08-04T07:38:48.634Z,1.30
2022-08-04T07:41:38.524Z,1.15
2022-08-04T07:44:08.447Z,1.00
2022-08-04T07:46:37.061Z,0.90
2022-08-04T07:49:05.865Z,0.98
2022-08-04T07:51:36.382Z,1.00
2022-08-04T07:54:05.409Z,1.23
2022-08-04T07:56:34.156Z,0.93
2022-08-04T07:59:02.382Z,1.05
2022-08-04T08:01:32.145Z,1.00
2022-08-04T08:04:01.952Z,0.85
2022-08-04T08:06:34.249Z,1.00
2022-08-04T08:09:12.444Z,0.90
2022-08-04T08:12:38.225Z,0.98
2022-08-04T08:14:31.581Z,1.00
2022-08-04T08:17:02.522Z,1.17
2022-08-04T08:19:30.738Z,1.10
2022-08-04T08:22:01.000Z,0.90
2022-08-04T08:24:30.072Z,0.88
2022-08-04T08:26:58.225Z,1.10
2022-08-04T08:29:27.404Z,1.02
2022-08-04T08:32:00.249Z,1.10
2022-08-04T08:34:33.010Z,0.90
2022-08-04T08:37:05.788Z,0.87
2022-08-04T08:39:40.253Z,0.80
2022-08-04T08:42:22.138Z,1.02
2022-08-04T08:45:22.730Z,1.10
2022-08-04T08:48:08.284Z,0.95
2022-08-04T08:51:03.984Z,0.90
2022-08-04T08:53:53.967Z,0.90
2022-08-04T08:56:33.189Z,0.98
2022-08-04T08:59:27.941Z,0.80
2022-08-04T09:02:35.043Z,1.08
2022-08-04T09:05:25.829Z,0.82
2022-08-04T09:08:21.717Z,0.90
2022-08-04T09:10:52.158Z,1.00
2022-08-04T09:13:26.630Z,1.20
2022-08-04T09:16:00.810Z,0.85
2022-08-04T09:18:36.143Z,0.90
2022-08-04T09:21:11.283Z,0.82
2022-08-04T09:23:52.803Z,1.05
2022-08-04T09:26:25.039Z,1.20
2022-08-04T09:29:00.635Z,0.90
2022-08-04T09:31:51.582Z,0.90
2022-08-04T09:34:34.269Z,0.90
2022-08-04T09:37:21.332Z,0.80
2022-08-04T09:40:04.310Z,1.08
2022-08-04T09:42:39.165Z,0.80
2022-08-04T09:45:26.435Z,0.90
2022-08-04T09:48:00.165Z,1.08
2022-08-04T09:50:34.815Z,0.90
2022-08-04T09:53:28.838Z,1.00
2022-08-04T09:56:04.765Z,1.00
2022-08-04T09:58:45.567Z,0.85
2022-08-04T10:01:23.102Z,0.82
2022-08-04T10:03:53.356Z,0.70
2022-08-04T10:06:46.928Z,1.00
2022-08-04T10:09:31.868Z,0.90
2022-08-04T10:12:17.823Z,0.70
2022-08-04T10:14:54.060Z,1.00
2022-08-04T10:17:32.719Z,0.90
2022-08-04T10:20:09.762Z,0.95
2022-08-04T10:23:02.077Z,1.17
2022-08-04T10:26:07.241Z,0.90
2022-08-04T10:28:39.000Z,1.20
2022-08-04T10:31:14.271Z,1.10
2022-08-04T10:33:48.116Z,0.88
2022-08-04T10:36:22.442Z,1.20
2022-08-04T10:38:57.378Z,1.00
2022-08-04T10:41:32.165Z,0.98
2022-08-04T10:44:14.093Z,0.90
2022-08-04T10:46:48.669Z,1.08
2022-08-04T10:49:25.443Z,1.00
2022-08-04T10:52:00.466Z,0.75
2022-08-04T10:54:34.173Z,1.05
2022-08-04T10:57:08.040Z,0.73
2022-08-04T11:00:00.695Z,1.00
2022-08-04T11:02:54.550Z,0.95
2022-08-04T11:05:31.474Z,0.80
2022-08-04T11:08:08.744Z,1.00
2022-08-04T11:10:46.138Z,0.88
2022-08-04T11:13:29.752Z,1.00
2022-08-04T11:16:04.151Z,1.17
2022-08-04T11:18:41.986Z,0.90
2022-08-04T11:21:15.811Z,1.00
2022-08-04T11:23:54.485Z,1.00
2022-08-04T11:26:29.518Z,1.17
2022-08-04T11:29:06.762Z,1.20
2022-08-04T11:31:41.215Z,0.98
2022-08-04T11:34:19.689Z,1.38
2022-08-04T11:36:53.303Z,0.90
2022-08-04T11:39:28.776Z,1.00
2022-08-04T11:42:07.467Z,1.08
2022-08-04T11:44:42.525Z,1.05
2022-08-04T11:47:22.269Z,1.00
2022-08-04T11:49:58.296Z,1.10
2022-08-04T11:52:29.563Z,1.10
2022-08-04T11:55:00.092Z,1.10
2022-08-04T12:00:10.923Z,1.00
2022-08-04T12:02:59.507Z,1.20
2022-08-04T12:05:36.518Z,0.93
2022-08-04T12:08:22.712Z,1.10
2022-08-04T12:11:02.613Z,1.35
2022-08-04T12:13:40.786Z,1.40
2022-08-04T12:16:17.056Z,1.10
2022-08-04T12:18:52.592Z,1.23
2022-08-04T12:21:30.394Z,1.40
2022-08-04T12:24:06.926Z,1.00
2022-08-04T12:26:38.397Z,1.35
2022-08-04T12:29:10.841Z,1.20
2022-08-04T12:31:46.658Z,1.30
2022-08-04T12:34:23.298Z,1.30
2022-08-04T12:36:59.906Z,1.30
2022-08-04T12:39:29.289Z,1.13
2022-08-04T12:42:04.767Z,1.17
2022-08-04T12:44:37.492Z,1.13
2022-08-04T12:47:27.004Z,1.27
2022-08-04T12:50:03.737Z,1.13
2022-08-04T12:55:26.711Z,1.27
2022-08-04T12:57:55.857Z,1.02
2022-08-04T13:00:32.166Z,0.98
2022-08-04T13:03:09.816Z,1.42
2022-08-04T13:05:41.965Z,0.90
2022-08-04T13:08:11.218Z,1.10
2022-08-04T13:10:41.293Z,1.27
2022-08-04T13:13:16.126Z,1.10
2022-08-04T13:15:47.660Z,1.20
2022-08-04T13:18:29.651Z,1.42
2022-08-04T13:21:19.893Z,1.00
2022-08-04T13:24:09.412Z,1.38
2022-08-04T13:26:45.048Z,1.27
2022-08-04T13:30:00.227Z,1.08
2022-08-04T13:32:17.672Z,1.60
2022-08-04T13:34:49.446Z,1.10
2022-08-04T13:37:24.589Z,1.30
2022-08-04T13:39:55.951Z,1.48
2022-08-04T13:42:26.673Z,1.10
2022-08-04T13:44:57.084Z,1.40
2022-08-04T13:47:29.144Z,1.67
2022-08-04T13:50:19.547Z,1.20
2022-08-04T13:52:52.526Z,1.27
2022-08-04T13:55:26.048Z,1.15
2022-08-04T13:58:06.161Z,1.20
2022-08-04T14:00:47.758Z,1.07
2022-08-04T14:03:26.058Z,0.93
2022-08-04T14:06:13.805Z,1.00
2022-08-04T14:08:57.526Z,1.10
2022-08-04T14:12:04.749Z,0.90
2022-08-04T14:14:25.431Z,0.98
2022-08-04T14:17:01.385Z,0.90
2022-08-04T14:19:35.998Z,0.70
2022-08-04T14:22:04.388Z,0.73
2022-08-04T14:24:33.471Z,0.65
2022-08-04T14:27:01.877Z,0.80
2022-08-04T14:29:39.313Z,0.70
2022-08-04T14:32:13.945Z,0.70
2022-08-04T14:34:45.493Z,0.70
2022-08-04T14:40:08.702Z,0.73
2022-08-04T14:42:54.823Z,0.70
2022-08-04T14:45:35.451Z,0.60
2022-08-04T14:48:07.207Z,0.80
2022-08-04T14:50:38.806Z,0.73
2022-08-04T14:53:12.096Z,0.70
2022-08-04T14:55:44.644Z,0.65
2022-08-04T14:58:33.008Z,0.60
2022-08-04T15:01:10.592Z,0.60
2022-08-04T15:03:51.731Z,0.70
2022-08-04T15:06:23.664Z,0.55
2022-08-04T15:08:52.322Z,0.68
2022-08-04T15:11:22.789Z,0.60
2022-08-04T15:13:52.169Z,0.70
2022-08-04T15:16:20.529Z,0.80
2022-08-04T15:18:49.643Z,0.75
2022-08-04T15:21:18.455Z,0.50
2022-08-04T15:23:46.232Z,0.80
2022-08-04T15:26:16.965Z,0.63
2022-08-04T15:28:51.360Z,0.73
2022-08-04T15:32:06.779Z,0.80
2022-08-04T15:34:11.808Z,0.90
2022-08-04T15:36:56.641Z,0.60
2022-08-04T15:39:36.597Z,0.60
2022-08-04T15:42:20.470Z,0.75
2022-08-04T15:45:14.368Z,0.65
2022-08-04T15:47:42.329Z,0.93
2022-08-04T15:50:28.305Z,0.80
2022-08-04T15:53:12.416Z,0.75
2022-08-04T15:55:43.159Z,0.60
2022-08-04T15:58:13.520Z,0.70
2022-08-04T16:01:17.906Z,1.90
2022-08-04T16:03:59.573Z,1.35
2022-08-04T16:06:47.418Z,0.90
2022-08-04T16:09:45.055Z,0.80
2022-08-04T16:12:54.928Z,0.90
2022-08-04T16:15:40.549Z,1.10
2022-08-04T16:18:25.696Z,1.40
2022-08-04T16:20:57.687Z,1.92
2022-08-04T16:24:02.131Z,1.55
2022-08-04T16:26:54.557Z,1.30
2022-08-04T16:29:42.355Z,1.45
2022-08-04T16:32:14.604Z,1.30
2022-08-04T16:34:54.532Z,1.08
2022-08-04T16:37:26.411Z,0.95
2022-08-04T16:40:23.874Z,0.90
2022-08-04T16:42:51.944Z,1.05
2022-08-04T16:45:19.753Z,0.90
2022-08-04T16:48:07.587Z,0.90
2022-08-04T16:50:48.594Z,1.20
2022-08-04T16:54:02.800Z,1.08
2022-08-04T16:56:06.884Z,1.25
2022-08-04T16:58:36.621Z,1.30
2022-08-04T17:01:09.444Z,1.08
2022-08-04T17:03:38.568Z,1.20
2022-08-04T17:06:10.017Z,1.10
2022-08-04T17:08:38.260Z,0.95
2022-08-04T17:11:08.970Z,1.20
2022-08-04T17:14:04.324Z,1.10
2022-08-04T17:16:29.964Z,1.20
2022-08-04T17:18:57.823Z,1.30
2022-08-04T17:21:29.061Z,1.27
2022-08-04T17:24:15.234Z,1.30
2022-08-04T17:26:54.165Z,1.10
2022-08-04T17:29:43.644Z,1.27
2022-08-04T17:32:16.965Z,1.17
2022-08-04T17:34:48.942Z,1.10
2022-08-04T17:37:39.284Z,1.30
2022-08-04T17:40:22.425Z,0.98
2022-08-04T17:44:04.064Z,1.27
2022-08-04T17:46:32.415Z,0.90
2022-08-04T17:49:03.290Z,1.27
2022-08-04T17:52:04.221Z,0.93
2022-08-04T17:54:37.207Z,1.10
2022-08-04T17:57:15.869Z,1.42
2022-08-04T18:02:40.853Z,1.00
2022-08-04T18:05:11.879Z,1.02
2022-08-04T18:08:37.979Z,1.10
2022-08-04T18:10:54.780Z,1.20
2022-08-04T18:13:28.498Z,1.10
2022-08-04T18:16:03.498Z,1.38
2022-08-04T18:18:34.892Z,1.35
2022-08-04T18:21:08.792Z,1.23
2022-08-04T18:26:23.575Z,1.55
2022-08-04T18:28:51.914Z,1.63
2022-08-04T18:31:19.667Z,1.27
2022-08-04T18:33:59.174Z,1.08
2022-08-04T18:36:34.060Z,1.40
2022-08-04T18:39:12.461Z,1.20
2022-08-04T18:42:01.519Z,1.38
2022-08-04T18:44:52.509Z,1.25
2022-08-04T18:47:22.552Z,1.48
2022-08-04T18:50:58.736Z,1.50
2022-08-04T18:52:42.145Z,1.33
2022-08-04T18:55:55.255Z,1.30
2022-08-04T18:58:11.766Z,1.20
2022-08-04T19:00:45.920Z,1.40
2022-08-04T19:03:21.989Z,1.20
2022-08-04T19:05:51.688Z,1.23
2022-08-04T19:08:34.697Z,1.08
2022-08-04T19:11:37.028Z,1.05
2022-08-04T19:14:02.945Z,1.40
2022-08-04T19:16:33.693Z,2.13
2022-08-04T19:19:03.649Z,1.38
2022-08-04T19:22:00.952Z,1.80
2022-08-04T19:24:32.494Z,1.35
2022-08-04T19:27:06.497Z,1.45
2022-08-04T19:29:41.339Z,1.40
2022-08-04T19:32:14.513Z,1.25
2022-08-04T19:34:45.671Z,1.25
2022-08-04T19:37:20.140Z,1.50
2022-08-04T19:40:02.759Z,1.40
2022-08-04T19:42:32.675Z,1.40
2022-08-04T19:45:02.189Z,1.20
2022-08-04T19:48:16.201Z,1.30
2022-08-04T19:50:26.497Z,1.40
2022-08-04T19:52:59.070Z,1.43
2022-08-04T19:55:38.873Z,1.40
2022-08-04T19:58:12.949Z,1.00
2022-08-04T20:00:50.871Z,1.00
2022-08-04T20:06:09.126Z,1.10
2022-08-04T20:08:48.928Z,1.30
2022-08-04T20:11:20.642Z,1.20
2022-08-04T20:13:54.768Z,1.40
2022-08-04T20:16:29.325Z,1.20
2022-08-04T20:19:03.128Z,1.48
2022-08-04T20:24:40.156Z,1.17
2022-08-04T20:27:11.824Z,1.02
2022-08-04T20:29:48.651Z,1.35
2022-08-04T20:32:23.796Z,1.23
2022-08-04T20:34:53.501Z,1.02
2022-08-04T20:37:25.779Z,1.27
2022-08-04T20:40:13.290Z,1.30
2022-08-04T20:42:41.384Z,1.50
2022-08-04T20:45:16.605Z,1.40
2022-08-04T20:47:53.422Z,1.20
2022-08-04T20:50:30.351Z,1.38
2022-08-04T20:52:58.978Z,1.15
2022-08-04T20:55:29.741Z,1.42
2022-08-04T20:58:03.048Z,1.35
2022-08-04T21:00:32.118Z,1.30
2022-08-04T21:03:01.654Z,1.10
2022-08-04T21:05:35.588Z,1.10
2022-08-04T21:08:03.314Z,1.15
2022-08-04T21:10:31.341Z,1.30
2022-08-04T21:12:59.241Z,1.20
2022-08-04T21:15:58.231Z,1.00
2022-08-04T21:18:18.102Z,1.27
2022-08-04T21:20:57.040Z,1.67
2022-08-04T21:23:25.079Z,1.33
2022-08-04T21:25:59.372Z,1.15
2022-08-04T21:28:27.147Z,1.30
2022-08-04T21:30:55.786Z,1.30
2022-08-04T21:36:16.151Z,1.17
2022-08-04T21:38:51.337Z,1.10
2022-08-04T21:41:24.763Z,1.10
2022-08-04T21:43:55.700Z,1.30
2022-08-04T21:46:23.502Z,1.27
2022-08-04T21:48:52.808Z,1.10
2022-08-04T21:54:17.059Z,1.40
2022-08-04T21:56:50.638Z,0.93
2022-08-04T21:59:24.210Z,0.93
2022-08-04T22:02:00.293Z,1.00
2022-08-04T22:04:30.064Z,2.08
2022-08-04T22:06:57.991Z,1.20
2022-08-04T22:09:31.730Z,0.90
2022-08-04T22:12:11.663Z,1.00
2022-08-04T22:14:40.601Z,1.00
2022-08-04T22:17:18.470Z,1.35
2022-08-04T22:19:55.074Z,1.30
2022-08-04T22:22:25.124Z,1.10
2022-08-04T22:24:58.697Z,1.02
2022-08-04T22:27:47.799Z,0.93
2022-08-04T22:30:23.758Z,1.20
2022-08-04T22:32:51.575Z,1.08
2022-08-04T22:35:36.569Z,1.08
2022-08-04T22:38:24.031Z,1.08
2022-08-04T22:40:58.416Z,1.17
2022-08-04T22:43:33.355Z,1.55
2022-08-04T22:46:05.196Z,1.20
2022-08-04T22:48:35.662Z,1.38
2022-08-04T22:51:05.768Z,1.35
2022-08-04T22:53:36.365Z,1.60
2022-08-04T22:56:09.265Z,1.33
2022-08-04T22:58:40.246Z,1.30
2022-08-04T23:01:08.365Z,1.23
2022-08-04T23:03:38.573Z,1.30
2022-08-04T23:06:10.486Z,0.90
2022-08-04T23:08:43.121Z,1.08
2022-08-04T23:11:14.877Z,1.00
2022-08-04T23:13:42.773Z,1.00
2022-08-04T23:16:11.218Z,1.15
2022-08-04T23:18:42.135Z,1.10
2022-08-04T23:21:14.166Z,1.00
2022-08-04T23:23:45.528Z,1.00
2022-08-04T23:26:27.689Z,1.00
2022-08-04T23:28:56.381Z,1.20
2022-08-04T23:31:24.277Z,1.00
2022-08-04T23:33:52.741Z,0.80
2022-08-04T23:36:29.781Z,1.00
2022-08-04T23:39:00.284Z,1.00
2022-08-04T23:41:53.768Z,1.05
2022-08-04T23:44:17.526Z,1.27
2022-08-04T23:46:53.456Z,0.95
2022-08-04T23:49:23.324Z,0.73
2022-08-04T23:51:54.352Z,1.00
2022-08-04T23:54:25.942Z,0.80
2022-08-04T23:56:53.844Z,0.57
2022-08-04T23:59:52.135Z,0.80
